createdAt,value
2022-09-15T00:00:45.826Z,7.80
2022-09-15T00:06:09.546Z,10.00
2022-09-15T00:11:22.910Z,8.50
2022-09-15T00:16:27.377Z,8.00
2022-09-15T00:21:32.148Z,8.20
2022-09-15T00:26:35.393Z,8.30
2022-09-15T00:31:39.019Z,7.80
2022-09-15T00:36:42.152Z,6.30
2022-09-15T00:41:44.792Z,5.60
2022-09-15T00:47:09.682Z,6.10
2022-09-15T00:52:29.157Z,6.50
2022-09-15T00:57:41.176Z,5.50
2022-09-15T01:02:46.614Z,6.50
2022-09-15T01:07:59.569Z,5.60
2022-09-15T01:13:05.501Z,5.30
2022-09-15T01:18:18.517Z,6.20
2022-09-15T01:23:47.739Z,5.10
2022-09-15T01:29:02.418Z,4.70
2022-09-15T01:34:16.482Z,5.00
2022-09-15T01:39:25.119Z,5.80
2022-09-15T01:44:49.862Z,5.10
2022-09-15T01:50:17.049Z,5.70
2022-09-15T01:55:32.250Z,5.50
2022-09-15T02:00:39.287Z,5.90
2022-09-15T02:05:52.355Z,5.60
2022-09-15T02:11:01.147Z,5.20
2022-09-15T02:16:04.502Z,5.30
2022-09-15T02:21:18.010Z,4.90
2022-09-15T02:26:25.077Z,5.30
2022-09-15T02:36:30.559Z,5.30
2022-09-15T02:41:35.298Z,6.00
2022-09-15T02:46:37.408Z,6.10
2022-09-15T02:51:39.376Z,5.80
2022-09-15T02:56:41.351Z,5.70
2022-09-15T03:01:44.853Z,6.40
2022-09-15T03:06:47.725Z,6.30
2022-09-15T03:11:50.673Z,6.00
2022-09-15T03:16:54.142Z,5.60
2022-09-15T03:21:57.063Z,5.40
2022-09-15T03:27:00.434Z,3.90
2022-09-15T03:32:03.736Z,4.60
2022-09-15T03:37:06.413Z,4.10
2022-09-15T03:42:08.742Z,4.50
2022-09-15T03:47:11.671Z,4.40
2022-09-15T03:52:15.017Z,3.90
2022-09-15T03:57:17.777Z,3.70
2022-09-15T04:02:21.458Z,2.90
2022-09-15T04:07:23.390Z,2.90
2022-09-15T04:12:25.337Z,3.10
2022-09-15T04:17:28.086Z,3.30
2022-09-15T04:22:32.809Z,3.50
2022-09-15T04:27:38.442Z,4.10
2022-09-15T04:32:40.890Z,3.90
2022-09-15T04:37:43.056Z,4.40
2022-09-15T04:42:46.876Z,3.50
2022-09-15T04:47:52.012Z,5.20
2022-09-15T04:52:54.758Z,4.00
2022-09-15T04:57:58.252Z,3.70
2022-09-15T05:03:00.247Z,4.00
2022-09-15T05:08:03.415Z,3.70
2022-09-15T05:13:06.088Z,4.10
2022-09-15T05:18:08.583Z,3.90
2022-09-15T05:23:11.407Z,4.10
2022-09-15T05:28:14.352Z,5.40
2022-09-15T05:33:17.680Z,5.40
2022-09-15T05:38:21.515Z,4.20
2022-09-15T05:43:23.620Z,4.50
2022-09-15T05:48:27.123Z,4.70
2022-09-15T05:53:31.017Z,4.90
2022-09-15T05:58:34.662Z,4.20
2022-09-15T06:03:37.149Z,3.50
2022-09-15T06:08:44.482Z,5.00
2022-09-15T06:13:48.894Z,4.60
2022-09-15T06:18:56.852Z,4.60
2022-09-15T06:24:03.064Z,4.50
2022-09-15T06:29:06.164Z,4.00
2022-09-15T06:34:10.907Z,4.10
2022-09-15T06:39:13.534Z,3.50
2022-09-15T06:44:16.535Z,3.60
2022-09-15T06:49:19.338Z,3.70
2022-09-15T06:54:21.714Z,4.10
2022-09-15T06:59:24.553Z,3.70
2022-09-15T07:04:37.103Z,4.00
2022-09-15T07:09:41.295Z,3.70
2022-09-15T07:14:44.571Z,4.40
2022-09-15T07:19:47.958Z,3.10
2022-09-15T07:24:50.633Z,3.70
2022-09-15T07:29:53.292Z,2.80
2022-09-15T07:34:58.362Z,3.30
2022-09-15T07:40:05.718Z,3.90
2022-09-15T07:45:09.104Z,3.60
2022-09-15T07:50:14.518Z,2.40
2022-09-15T07:55:18.525Z,3.80
2022-09-15T08:00:20.777Z,3.30
2022-09-15T08:05:28.823Z,3.00
2022-09-15T08:10:33.439Z,3.20
2022-09-15T08:15:37.723Z,3.30
2022-09-15T08:20:43.617Z,3.30
2022-09-15T08:25:46.374Z,2.60
2022-09-15T08:30:49.975Z,3.00
2022-09-15T08:35:54.217Z,3.20
2022-09-15T08:41:05.947Z,2.60
2022-09-15T08:46:15.391Z,1.80
2022-09-15T08:51:41.446Z,2.10
2022-09-15T08:56:44.520Z,2.20
2022-09-15T09:02:15.112Z,2.90
2022-09-15T09:07:37.379Z,1.30
2022-09-15T09:12:52.315Z,2.00
2022-09-15T09:18:27.893Z,2.20
2022-09-15T09:23:32.831Z,2.50
2022-09-15T09:28:59.232Z,2.40
2022-09-15T09:34:10.830Z,2.50
2022-09-15T09:39:17.033Z,1.70
2022-09-15T09:49:35.138Z,2.60
2022-09-15T09:54:37.875Z,1.80
2022-09-15T09:59:45.016Z,1.30
2022-09-15T10:05:19.460Z,1.50
2022-09-15T10:10:28.910Z,1.70
2022-09-15T10:15:35.058Z,1.90
2022-09-15T10:20:50.275Z,1.70
2022-09-15T10:26:00.598Z,1.60
2022-09-15T10:31:16.768Z,1.60
2022-09-15T10:36:33.805Z,2.00
2022-09-15T10:41:45.018Z,1.70
2022-09-15T10:47:05.449Z,1.70
2022-09-15T10:52:31.352Z,1.90
2022-09-15T10:57:57.907Z,2.30
2022-09-15T11:03:41.544Z,1.40
2022-09-15T11:09:05.705Z,2.10
2022-09-15T11:14:30.714Z,1.60
2022-09-15T11:19:46.178Z,2.10
2022-09-15T11:25:01.567Z,1.70
2022-09-15T11:30:19.325Z,1.90
2022-09-15T11:35:40.487Z,1.50
2022-09-15T11:40:55.285Z,1.80
2022-09-15T11:46:02.311Z,1.20
2022-09-15T11:51:06.441Z,1.80
2022-09-15T11:56:34.447Z,2.00
2022-09-15T12:01:59.418Z,1.90
2022-09-15T12:07:14.802Z,2.70
2022-09-15T12:12:22.187Z,1.90
2022-09-15T12:17:47.353Z,1.90
2022-09-15T12:23:20.594Z,1.90
2022-09-15T12:28:24.108Z,1.90
2022-09-15T12:33:53.935Z,1.60
2022-09-15T12:38:56.747Z,2.00
2022-09-15T12:44:05.353Z,2.20
2022-09-15T12:49:20.668Z,2.30
2022-09-15T12:54:29.426Z,1.80
2022-09-15T12:59:32.120Z,2.20
2022-09-15T13:04:52.549Z,2.80
2022-09-15T13:10:14.784Z,1.20
2022-09-15T13:15:18.747Z,1.80
2022-09-15T13:20:30.193Z,1.20
2022-09-15T13:25:33.228Z,1.70
2022-09-15T13:30:44.765Z,1.80
2022-09-15T13:36:05.799Z,1.80
2022-09-15T13:41:32.099Z,1.80
2022-09-15T13:46:38.315Z,1.70
2022-09-15T13:51:45.187Z,2.00
2022-09-15T13:56:53.884Z,1.60
2022-09-15T14:01:59.156Z,2.20
2022-09-15T14:07:02.690Z,2.10
2022-09-15T14:12:11.948Z,2.50
2022-09-15T14:17:29.856Z,1.90
2022-09-15T14:22:34.765Z,1.60
2022-09-15T14:27:43.910Z,2.10
2022-09-15T14:32:48.963Z,2.70
2022-09-15T14:37:58.173Z,2.80
2022-09-15T14:43:01.356Z,2.00
2022-09-15T14:48:09.402Z,1.80
2022-09-15T14:53:22.521Z,2.10
2022-09-15T14:58:34.202Z,2.40
2022-09-15T15:03:49.968Z,2.70
2022-09-15T15:09:03.354Z,2.10
2022-09-15T15:14:07.513Z,2.50
2022-09-15T15:19:34.467Z,2.40
2022-09-15T15:24:43.465Z,1.80
2022-09-15T15:29:46.837Z,3.00
2022-09-15T15:34:52.431Z,2.70
2022-09-15T15:39:57.617Z,2.60
2022-09-15T15:45:12.619Z,3.00
2022-09-15T15:50:24.158Z,2.40
2022-09-15T15:55:39.182Z,2.10
2022-09-15T16:00:56.314Z,3.00
2022-09-15T16:06:03.256Z,2.50
2022-09-15T16:11:09.508Z,2.20
2022-09-15T16:16:19.474Z,2.50
2022-09-15T16:21:39.245Z,2.70
2022-09-15T16:26:53.142Z,2.30
2022-09-15T16:32:00.571Z,2.60
2022-09-15T16:37:03.779Z,2.30
2022-09-15T16:42:09.201Z,3.10
2022-09-15T16:47:15.818Z,2.70
2022-09-15T16:52:19.992Z,2.40
2022-09-15T16:57:22.772Z,3.80
2022-09-15T17:02:29.855Z,3.30
2022-09-15T17:07:32.751Z,3.10
2022-09-15T17:12:37.747Z,3.20
2022-09-15T17:17:41.229Z,3.60
2022-09-15T17:22:51.616Z,3.60
2022-09-15T17:27:58.113Z,3.00
2022-09-15T17:33:04.142Z,3.60
2022-09-15T17:38:08.276Z,3.30
2022-09-15T17:43:17.733Z,3.30
2022-09-15T17:48:21.621Z,3.70
2022-09-15T17:53:28.266Z,3.10
2022-09-15T17:58:31.840Z,4.70
2022-09-15T18:03:36.804Z,3.70
2022-09-15T18:08:43.635Z,3.70
2022-09-15T18:13:49.025Z,4.00
2022-09-15T18:18:52.697Z,3.10
2022-09-15T18:23:56.828Z,3.90
2022-09-15T18:28:59.721Z,4.30
2022-09-15T18:34:02.414Z,3.80
2022-09-15T18:39:05.676Z,4.60
2022-09-15T18:44:09.117Z,3.90
2022-09-15T18:49:11.587Z,4.70
2022-09-15T18:54:16.906Z,6.40
2022-09-15T18:59:19.814Z,4.00
2022-09-15T19:04:26.321Z,3.80
2022-09-15T19:09:31.351Z,4.60
2022-09-15T19:14:34.895Z,4.80
2022-09-15T19:19:37.176Z,4.60
2022-09-15T19:24:42.609Z,4.20
2022-09-15T19:29:45.967Z,4.30
2022-09-15T19:34:48.973Z,4.30
2022-09-15T19:39:56.034Z,4.40
2022-09-15T19:44:59.914Z,4.40
2022-09-15T19:50:05.580Z,3.40
2022-09-15T19:55:12.411Z,3.70
2022-09-15T20:00:14.699Z,3.50
2022-09-15T20:05:19.335Z,4.00
2022-09-15T20:10:23.978Z,3.20
2022-09-15T20:15:28.604Z,4.50
2022-09-15T20:20:32.679Z,4.00
2022-09-15T20:25:36.226Z,3.70
2022-09-15T20:30:39.368Z,3.90
2022-09-15T20:35:43.793Z,4.10
2022-09-15T20:40:48.824Z,3.60
2022-09-15T20:46:01.643Z,3.80
2022-09-15T20:51:12.500Z,3.30
2022-09-15T20:56:16.724Z,3.20
2022-09-15T21:01:24.879Z,3.10
2022-09-15T21:06:28.831Z,2.70
2022-09-15T21:11:31.705Z,3.10
2022-09-15T21:16:34.715Z,2.80
2022-09-15T21:21:37.881Z,3.80
2022-09-15T21:27:00.599Z,2.80
2022-09-15T21:32:03.956Z,3.60
2022-09-15T21:37:06.828Z,3.40
2022-09-15T21:42:12.921Z,4.20
2022-09-15T21:47:16.232Z,3.90
2022-09-15T21:52:18.762Z,2.70
2022-09-15T21:57:21.126Z,4.40
2022-09-15T22:02:24.912Z,3.80
2022-09-15T22:07:27.837Z,3.70
2022-09-15T22:12:30.393Z,3.80
2022-09-15T22:17:32.706Z,3.40
2022-09-15T22:22:35.724Z,3.80
2022-09-15T22:27:37.931Z,3.80
2022-09-15T22:32:40.792Z,4.00
2022-09-15T22:37:43.305Z,4.50
2022-09-15T22:42:46.467Z,4.30
2022-09-15T22:47:48.507Z,3.90
2022-09-15T22:52:52.279Z,3.80
2022-09-15T22:57:54.427Z,3.10
2022-09-15T23:02:57.539Z,3.30
2022-09-15T23:08:00.121Z,3.90
2022-09-15T23:13:01.784Z,3.90
2022-09-15T23:18:04.138Z,5.00
2022-09-15T23:23:06.681Z,3.90
2022-09-15T23:28:10.255Z,3.80
2022-09-15T23:33:13.225Z,3.30
2022-09-15T23:38:16.142Z,4.10
2022-09-15T23:43:19.284Z,3.60
2022-09-15T23:48:22.680Z,4.00
2022-09-15T23:53:28.479Z,3.50
2022-09-15T23:58:30.398Z,3.60
